Aston, Pennsylvania
Current Conditions -  °F | °C
As of 9:54 AM on Thursday 23 Oct 2014 (Local Time) from KPHL Reporting Station
Overcast Overcast  
Wind Chill: 52°   Ceiling: 5000
Heat Index: 52°   Visibility: 10mi
Dew Point: 46°   Wind: 18mph
Humidity: 80%   Direction: 330°NNW
Pressure: 29.78"   Gusts: 28mph
Location:  39.88°N, 75.45°W
Report Text: KPHL 231354Z 33016G24KT 10SM FEW015 BKN050 OVC070 11/08 A2978 RMK AO2 RAB03E21 SLP085 T01110078 PNO $
Loading
Personal Weather Stations






























Interactive Weather Map
Tropical Storm Tracking
New forecast layout! Learn more

10-Day Weather Forecast

Advertisements
Track Severe Weather on mobile